< < Back
Terminal Aerodrome Forecast


Current Version              Previous Versions:   1  2  3  4  5  6  7  8  9  

Terminal Aerodrome Forecast

606
FTUS42 KCAE 300500
TAFAGS
TAF
KAGS 300523Z 3006/0106 09003KT P6SM OVC015
      TEMPO 3006/3007 5SM BR OVC006
     FM300700 02003KT 1SM BR OVC003
     FM301300 03003KT P6SM BKN020
     FM301600 03006KT P6SM SCT040=



Latest METAR

799
SAUS70 KWBC 300900 RRB
MTRAGS
METAR KAGS 300853Z AUTO 00000KT 10SM OVC041 19/17 A2991 RMK AO2 SLP125
T01940172 55006


USA.gov is the U.S. government's official web portal to all federal, state and local government web resources and services.